createdAt,value
2022-10-07T00:01:10.019Z,77.90
2022-10-07T00:03:38.279Z,78.09
2022-10-07T00:06:07.351Z,78.21
2022-10-07T00:08:36.565Z,78.18
2022-10-07T00:11:06.364Z,77.84
2022-10-07T00:13:36.682Z,77.84
2022-10-07T00:16:07.355Z,78.54
2022-10-07T00:18:36.071Z,78.17
2022-10-07T00:21:05.069Z,78.24
2022-10-07T00:23:33.304Z,77.55
2022-10-07T00:26:02.554Z,78.24
2022-10-07T00:28:31.052Z,77.92
2022-10-07T00:31:01.316Z,78.01
2022-10-07T00:33:31.732Z,78.39
2022-10-07T00:35:59.836Z,78.27
2022-10-07T00:38:27.936Z,78.42
2022-10-07T00:40:56.044Z,77.34
2022-10-07T00:43:26.435Z,77.51
2022-10-07T00:45:56.445Z,78.33
2022-10-07T00:48:28.922Z,77.20
2022-10-07T00:50:58.237Z,77.44
2022-10-07T00:53:27.542Z,77.13
2022-10-07T00:55:56.227Z,76.71
2022-10-07T00:58:24.490Z,77.44
2022-10-07T01:00:52.676Z,76.09
2022-10-07T01:03:20.941Z,76.57
2022-10-07T01:05:51.103Z,75.95
2022-10-07T01:08:19.696Z,76.82
2022-10-07T01:10:52.320Z,76.13
2022-10-07T01:13:26.140Z,76.17
2022-10-07T01:15:59.896Z,75.91
2022-10-07T01:18:31.540Z,76.55
2022-10-07T01:21:05.350Z,75.54
2022-10-07T01:23:41.925Z,75.56
2022-10-07T01:26:24.889Z,76.01
2022-10-07T01:28:57.397Z,75.98
2022-10-07T01:31:29.175Z,75.37
2022-10-07T01:33:59.298Z,75.97
2022-10-07T01:36:27.580Z,75.69
2022-10-07T01:39:01.666Z,75.20
2022-10-07T01:41:31.331Z,75.81
2022-10-07T01:44:01.878Z,75.48
2022-10-07T01:46:30.691Z,75.38
2022-10-07T01:49:01.928Z,75.63
2022-10-07T01:51:34.588Z,75.31
2022-10-07T01:54:07.104Z,75.64
2022-10-07T01:56:43.759Z,75.60
2022-10-07T01:59:30.767Z,74.68
2022-10-07T02:02:04.173Z,74.84
2022-10-07T02:04:41.483Z,75.64
2022-10-07T02:07:16.131Z,75.97
2022-10-07T02:09:47.721Z,76.02
2022-10-07T02:12:18.049Z,75.88
2022-10-07T02:14:52.083Z,75.81
2022-10-07T02:17:21.938Z,75.95
2022-10-07T02:19:53.615Z,76.25
2022-10-07T02:22:23.769Z,76.44
2022-10-07T02:24:55.510Z,75.89
2022-10-07T02:27:26.091Z,76.64
2022-10-07T02:30:00.956Z,76.80
2022-10-07T02:32:33.312Z,76.38
2022-10-07T02:35:03.939Z,76.74
2022-10-07T02:37:36.444Z,76.44
2022-10-07T02:40:12.061Z,77.13
2022-10-07T02:42:43.349Z,76.14
2022-10-07T02:45:16.916Z,75.91
2022-10-07T02:47:49.864Z,76.35
2022-10-07T02:50:22.559Z,76.47
2022-10-07T02:52:52.582Z,75.78
2022-10-07T02:55:23.641Z,76.12
2022-10-07T02:57:54.663Z,76.34
2022-10-07T03:00:25.085Z,76.22
2022-10-07T03:02:55.870Z,75.72
2022-10-07T03:05:28.563Z,75.59
2022-10-07T03:08:02.746Z,75.11
2022-10-07T03:10:33.368Z,75.98
2022-10-07T03:13:05.108Z,75.36
2022-10-07T03:15:41.904Z,74.98
2022-10-07T03:18:26.781Z,74.75
2022-10-07T03:21:04.266Z,75.26
2022-10-07T03:23:32.443Z,74.81
2022-10-07T03:26:01.136Z,74.80
2022-10-07T03:28:31.685Z,75.25
2022-10-07T03:31:06.524Z,74.98
2022-10-07T03:33:37.456Z,74.46
2022-10-07T03:36:08.349Z,74.41
2022-10-07T03:38:37.922Z,74.21
2022-10-07T03:41:06.683Z,74.04
2022-10-07T03:43:35.750Z,74.03
2022-10-07T03:46:08.010Z,74.33
2022-10-07T03:48:38.247Z,73.96
2022-10-07T03:51:06.668Z,74.15
2022-10-07T03:53:38.732Z,73.83
2022-10-07T03:56:07.054Z,73.53
2022-10-07T03:58:36.562Z,74.04
2022-10-07T04:01:09.155Z,73.04
2022-10-07T04:03:39.308Z,73.40
2022-10-07T04:06:07.851Z,73.02
2022-10-07T04:08:36.686Z,72.98
2022-10-07T04:11:06.583Z,72.92
2022-10-07T04:13:37.305Z,72.60
2022-10-07T04:16:09.208Z,71.72
2022-10-07T04:18:38.458Z,72.66
2022-10-07T04:21:07.243Z,72.15
2022-10-07T04:23:37.233Z,71.87
2022-10-07T04:26:09.316Z,72.17
2022-10-07T04:28:38.382Z,71.08
2022-10-07T04:31:14.179Z,71.86
2022-10-07T04:33:46.470Z,71.27
2022-10-07T04:36:20.077Z,72.01
2022-10-07T04:38:53.933Z,71.80
2022-10-07T04:41:26.971Z,71.44
2022-10-07T04:43:57.962Z,71.47
2022-10-07T04:46:30.831Z,70.68
2022-10-07T04:49:05.359Z,71.29
2022-10-07T04:51:33.790Z,71.29
2022-10-07T04:54:02.477Z,71.26
2022-10-07T04:56:36.553Z,70.93
2022-10-07T04:59:07.799Z,70.61
2022-10-07T05:01:39.457Z,70.83
2022-10-07T05:04:07.617Z,70.72
2022-10-07T05:06:35.795Z,70.97
2022-10-07T05:09:04.019Z,70.55
2022-10-07T05:11:35.967Z,70.73
2022-10-07T05:14:09.579Z,70.75
2022-10-07T05:16:40.005Z,71.02
2022-10-07T05:19:10.674Z,71.43
2022-10-07T05:21:40.232Z,71.22
2022-10-07T05:24:08.592Z,71.43
2022-10-07T05:26:39.281Z,70.58
2022-10-07T05:29:09.485Z,71.34
2022-10-07T05:31:52.136Z,70.85
2022-10-07T05:34:23.998Z,70.59
2022-10-07T05:36:53.884Z,70.39
2022-10-07T05:39:23.354Z,70.27
2022-10-07T05:41:59.787Z,70.78
2022-10-07T05:44:34.421Z,69.59
2022-10-07T05:47:06.113Z,69.59
2022-10-07T05:49:34.365Z,69.08
2022-10-07T05:52:03.238Z,69.22
2022-10-07T05:54:33.348Z,69.46
2022-10-07T05:57:03.092Z,69.44
2022-10-07T05:59:32.443Z,69.59
2022-10-07T06:02:01.445Z,68.85
2022-10-07T06:04:31.893Z,69.10
2022-10-07T06:07:00.718Z,69.79
2022-10-07T06:09:47.341Z,69.32
2022-10-07T06:12:35.838Z,69.17
2022-10-07T06:15:09.847Z,68.13
2022-10-07T06:17:42.854Z,67.67
2022-10-07T06:20:15.321Z,66.95
2022-10-07T06:22:44.657Z,66.98
2022-10-07T06:25:14.764Z,66.81
2022-10-07T06:27:44.199Z,66.70
2022-10-07T06:30:14.360Z,66.46
2022-10-07T06:32:42.665Z,66.71
2022-10-07T06:35:11.134Z,66.57
2022-10-07T06:37:41.851Z,66.14
2022-10-07T06:40:12.047Z,66.46
2022-10-07T06:42:41.005Z,66.36
2022-10-07T06:45:31.427Z,64.98
2022-10-07T06:48:00.431Z,65.34
2022-10-07T06:50:29.453Z,64.59
2022-10-07T06:52:59.904Z,64.98
2022-10-07T06:55:31.183Z,64.84
2022-10-07T06:57:59.484Z,65.14
2022-10-07T07:00:28.500Z,64.79
2022-10-07T07:02:56.758Z,64.86
2022-10-07T07:05:25.233Z,65.21
2022-10-07T07:07:53.492Z,64.16
2022-10-07T07:10:22.949Z,63.86
2022-10-07T07:12:53.986Z,63.18
2022-10-07T07:15:22.429Z,63.98
2022-10-07T07:17:50.548Z,63.62
2022-10-07T07:20:19.764Z,62.81
2022-10-07T07:22:48.077Z,63.25
2022-10-07T07:25:17.070Z,62.73
2022-10-07T07:27:51.373Z,61.50
2022-10-07T07:30:24.482Z,60.73
2022-10-07T07:32:54.045Z,60.50
2022-10-07T07:35:22.249Z,60.54
2022-10-07T07:37:50.525Z,61.17
2022-10-07T07:40:19.713Z,60.53
2022-10-07T07:42:49.538Z,62.99
2022-10-07T07:45:18.627Z,61.57
2022-10-07T07:47:49.609Z,60.57
2022-10-07T07:50:20.970Z,62.11
2022-10-07T07:52:51.935Z,61.11
2022-10-07T07:55:24.454Z,62.59
2022-10-07T07:57:54.050Z,61.09
2022-10-07T08:00:22.212Z,61.56
2022-10-07T08:03:01.551Z,62.25
2022-10-07T08:05:30.289Z,60.82
2022-10-07T08:08:00.461Z,61.94
2022-10-07T08:10:29.134Z,61.82
2022-10-07T08:12:58.614Z,61.43
2022-10-07T08:15:26.972Z,61.62
2022-10-07T08:17:55.297Z,60.83
2022-10-07T08:20:23.968Z,61.84
2022-10-07T08:22:56.899Z,62.03
2022-10-07T08:25:30.146Z,60.98
2022-10-07T08:28:03.582Z,59.61
2022-10-07T08:30:33.812Z,59.92
2022-10-07T08:33:01.991Z,59.55
2022-10-07T08:35:30.117Z,58.28
2022-10-07T08:38:04.245Z,57.35
2022-10-07T08:40:32.485Z,56.93
2022-10-07T08:43:00.614Z,56.48
2022-10-07T08:45:31.998Z,56.04
2022-10-07T08:48:02.208Z,55.15
2022-10-07T08:50:35.670Z,55.08
2022-10-07T08:53:04.909Z,55.61
2022-10-07T08:55:37.636Z,54.77
2022-10-07T08:58:14.898Z,54.78
2022-10-07T09:00:50.487Z,55.14
2022-10-07T09:03:25.996Z,54.35
2022-10-07T09:05:55.799Z,54.89
2022-10-07T09:08:28.690Z,54.92
2022-10-07T09:11:02.460Z,54.74
2022-10-07T09:13:36.188Z,55.16
2022-10-07T09:16:16.055Z,55.30
2022-10-07T09:18:46.769Z,55.54
2022-10-07T09:21:18.932Z,55.64
2022-10-07T09:23:47.642Z,55.75
2022-10-07T09:26:16.841Z,55.75
2022-10-07T09:28:45.069Z,55.10
2022-10-07T09:31:16.355Z,54.59
